»·PEaware :: N1121L L88-KSBP

N1121L :: L88-KSBP

FLIGHT INFORMATION

Flight Status: Arrived
Operator: Privately registered:
United States
More flights under this callsign
Pilot: Heberto L. (27891)
Aircraft: CESSNA 172 SKYHAWK
(C172)
More flights by this aircraft type
Origin: L88 New Cuyama
United States
Destination: KSBP San Luis Co Regl
United States
More flights between these airports :: More routes between these airports
Route:
File this flight plan on PilotEdge
Remarks: Cat 2 Rating
Altitude:
(Current/Filed)
4,500ft
Speed:
(Current/Filed)
120kts
Departed: 05-Feb-20 07:49 PM
Arrived: 05-Feb-20 08:33 PM
Distance/Time
Traveled:
50nm/0:44
Distance/Time
To Go:
Arrived

Flight Plot

Page will automatically refresh every two minutes.


Map Options




Map Legend


Flown Route
Filed Route
Departure Airport
Arrival Airport
Navaid (VOR, NDB)
Fix

Horizontal Profiles

Position Reports

Time Latitude Longitude Heading Altitude Ground
Speed
05-Feb-20 19:44 34.943324 -119.690776 10 2158ft 0kts
05-Feb-20 19:45 34.943324 -119.690776 10 2158ft 0kts
05-Feb-20 19:46 34.943320 -119.690815 231 2157ft 0kts
05-Feb-20 19:47 34.942916 -119.691108 206 2158ft 0kts
05-Feb-20 19:48 34.941401 -119.689190 118 2166ft 48kts
05-Feb-20 19:49 34.930547 -119.666730 123 2541ft 84kts
05-Feb-20 19:50 34.929340 -119.641792 27 3066ft 72kts
05-Feb-20 19:51 34.944023 -119.649249 299 3504ft 81kts
05-Feb-20 19:52 34.955036 -119.674082 307 4288ft 86kts
05-Feb-20 19:53 34.968166 -119.705230 300 4510ft 121kts
05-Feb-20 19:54 34.981761 -119.742816 297 4521ft 121kts
05-Feb-20 19:55 34.994791 -119.781020 297 4532ft 121kts
05-Feb-20 19:56 35.007772 -119.819192 297 4544ft 121kts
05-Feb-20 19:57 35.020673 -119.857247 298 4555ft 121kts
05-Feb-20 19:58 35.033612 -119.895532 298 4567ft 121kts
05-Feb-20 19:59 35.046403 -119.933509 298 4638ft 116kts
05-Feb-20 20:00 35.059622 -119.972330 298 4504ft 122kts
05-Feb-20 20:01 35.072002 -120.009066 298 4507ft 111kts
05-Feb-20 20:03 35.083388 -120.043599 298 4519ft 111kts
05-Feb-20 20:04 35.095745 -120.079109 298 4533ft 113kts
05-Feb-20 20:05 35.107771 -120.113382 298 4539ft 107kts
05-Feb-20 20:06 35.119543 -120.146669 298 4548ft 105kts
05-Feb-20 20:07 35.131316 -120.179549 298 4556ft 105kts
05-Feb-20 20:08 35.143266 -120.212424 299 4524ft 106kts
05-Feb-20 20:09 35.155304 -120.245108 299 4529ft 104kts
05-Feb-20 20:10 35.168081 -120.279393 299 4511ft 115kts
05-Feb-20 20:11 35.181945 -120.315131 315 4509ft 115kts
05-Feb-20 20:12 35.212762 -120.310255 12 4506ft 118kts
05-Feb-20 20:13 35.242854 -120.315465 339 4587ft 110kts
05-Feb-20 20:14 35.272937 -120.328875 339 4448ft 118kts
05-Feb-20 20:15 35.301399 -120.348740 325 4250ft 116kts
05-Feb-20 20:16 35.320240 -120.377646 307 4041ft 105kts
05-Feb-20 20:17 35.336087 -120.407888 308 3841ft 105kts
05-Feb-20 20:18 35.351723 -120.437631 308 3678ft 104kts
05-Feb-20 20:19 35.367356 -120.468163 301 3477ft 107kts
05-Feb-20 20:19 35.376425 -120.497000 302 3252ft 113kts
05-Feb-20 20:21 35.388599 -120.541409 294 2797ft 119kts
05-Feb-20 20:22 35.399242 -120.580531 294 2399ft 122kts
05-Feb-20 20:22 35.407173 -120.610315 294 2674ft 96kts
05-Feb-20 20:23 35.415535 -120.642198 273 3247ft 116kts
05-Feb-20 20:25 35.396078 -120.685773 211 3350ft 151kts
05-Feb-20 20:25 35.366222 -120.683161 136 3130ft 135kts
05-Feb-20 20:26 35.329248 -120.667977 165 2725ft 137kts
05-Feb-20 20:28 35.285563 -120.652976 166 1963ft 132kts
05-Feb-20 20:28 35.261022 -120.637469 127 1497ft 110kts
05-Feb-20 20:29 35.238229 -120.610957 136 850ft 113kts
05-Feb-20 20:30 35.221246 -120.607794 282 687ft 61kts
05-Feb-20 20:31 35.229320 -120.627066 303 388ft 66kts
05-Feb-20 20:32 35.237420 -120.639936 4 216ft 0kts
05-Feb-20 20:33 35.237420 -120.639936 4 216ft 0kts
05-Feb-20 20:34 35.240205 -120.643121 2 216ft 19kts
05-Feb-20 20:35 35.240438 -120.643134 353 216ft 0kts
05-Feb-20 20:36 35.240438 -120.643134 353 216ft 0kts
05-Feb-20 20:37 35.240438 -120.643134 353 216ft 0kts
05-Feb-20 20:38 35.240438 -120.643134 353 216ft 0kts

Navigation Log

Ident Type
Flight plan parsing failed, navigation log unavailable